createdAt,value
2017-10-01T00:01:36.351Z,15.54
2017-10-01T00:04:43.076Z,16.17
2017-10-01T00:07:49.826Z,16.41
2017-10-01T00:10:55.396Z,16.65
2017-10-01T00:14:03.090Z,16.08
2017-10-01T00:17:10.935Z,16.50
2017-10-01T00:20:17.461Z,16.87
2017-10-01T00:23:23.087Z,17.01
2017-10-01T00:26:29.506Z,16.93
2017-10-01T00:29:36.367Z,16.45
2017-10-01T00:32:43.955Z,16.13
2017-10-01T00:35:49.694Z,16.06
2017-10-01T00:38:55.481Z,15.90
2017-10-01T00:42:02.214Z,15.73
2017-10-01T00:45:07.746Z,15.75
2017-10-01T00:48:13.500Z,15.84
2017-10-01T00:51:19.177Z,16.26
2017-10-01T00:54:25.773Z,15.84
2017-10-01T00:57:33.429Z,15.77
2017-10-01T01:00:39.075Z,15.39
2017-10-01T01:03:45.967Z,15.55
2017-10-01T01:06:51.746Z,14.77
2017-10-01T01:09:58.499Z,14.89
2017-10-01T01:13:04.194Z,15.04
2017-10-01T01:16:11.812Z,14.93
2017-10-01T01:19:18.544Z,15.28
2017-10-01T01:22:26.015Z,15.20
2017-10-01T01:25:31.495Z,15.09
2017-10-01T01:28:38.122Z,15.48
2017-10-01T01:34:56.382Z,15.62
2017-10-01T01:38:02.766Z,15.86
2017-10-01T01:41:08.440Z,15.30
2017-10-01T01:44:15.019Z,15.49
2017-10-01T01:47:20.729Z,15.63
2017-10-01T01:50:27.595Z,15.55
2017-10-01T01:53:33.270Z,15.60
2017-10-01T01:56:39.858Z,15.14
2017-10-01T01:59:45.726Z,15.41
2017-10-01T02:02:52.395Z,15.31
2017-10-01T02:05:57.917Z,15.47
2017-10-01T02:09:05.778Z,15.73
2017-10-01T02:12:12.387Z,16.11
2017-10-01T02:15:18.099Z,16.17
2017-10-01T02:18:24.800Z,16.02
2017-10-01T02:21:31.449Z,15.89
2017-10-01T02:24:37.031Z,15.87
2017-10-01T02:27:43.691Z,15.86
2017-10-01T02:30:49.191Z,15.57
2017-10-01T02:33:55.941Z,15.55
2017-10-01T02:37:01.660Z,15.47
2017-10-01T02:40:09.125Z,15.59
2017-10-01T02:43:14.849Z,15.18
2017-10-01T02:46:21.486Z,15.46
2017-10-01T02:49:28.166Z,15.76
2017-10-01T02:52:35.038Z,15.72
2017-10-01T02:55:41.814Z,15.58
2017-10-01T02:58:49.539Z,15.00
2017-10-01T03:01:55.366Z,15.27
2017-10-01T03:05:03.089Z,15.83
2017-10-01T03:10:48.230Z,15.48
2017-10-01T03:13:53.882Z,15.63
2017-10-01T03:16:59.637Z,15.77
2017-10-01T03:20:06.315Z,15.75
2017-10-01T03:23:13.275Z,15.90
2017-10-01T03:26:18.808Z,16.11
2017-10-01T03:29:25.750Z,16.11
2017-10-01T03:32:32.417Z,16.22
2017-10-01T03:35:40.093Z,16.10
2017-10-01T03:38:45.779Z,16.09
2017-10-01T03:41:52.463Z,16.19
2017-10-01T03:44:58.208Z,16.20
2017-10-01T03:48:04.910Z,16.35
2017-10-01T03:51:10.924Z,16.29
2017-10-01T03:54:18.445Z,16.21
2017-10-01T03:57:24.268Z,16.25
2017-10-01T04:00:31.105Z,16.32
2017-10-01T04:03:36.768Z,16.46
2017-10-01T04:06:43.478Z,16.50
2017-10-01T04:09:50.246Z,16.50
2017-10-01T04:12:58.020Z,16.24
2017-10-01T04:16:04.824Z,16.38
2017-10-01T04:19:12.398Z,16.14
2017-10-01T04:22:18.321Z,15.94
2017-10-01T04:25:24.814Z,16.11
2017-10-01T04:28:30.363Z,16.09
2017-10-01T04:31:35.991Z,15.94
2017-10-01T04:34:41.591Z,16.10
2017-10-01T04:37:48.343Z,15.95
2017-10-01T04:40:54.150Z,16.09
2017-10-01T04:44:01.825Z,16.14
2017-10-01T04:47:07.534Z,15.98
2017-10-01T04:50:14.281Z,15.93
2017-10-01T04:53:20.986Z,15.89
2017-10-01T04:56:28.966Z,15.60
2017-10-01T04:59:34.994Z,15.60
2017-10-01T05:02:41.605Z,15.56
2017-10-01T05:05:47.374Z,15.49
2017-10-01T05:08:54.086Z,15.38
2017-10-01T05:11:59.745Z,15.28
2017-10-01T05:15:06.498Z,15.17
2017-10-01T05:18:13.308Z,15.14
2017-10-01T05:21:20.916Z,15.06
2017-10-01T05:24:27.512Z,14.97
2017-10-01T05:27:35.367Z,14.83
2017-10-01T05:30:42.200Z,14.80
2017-10-01T05:33:48.743Z,14.66
2017-10-01T05:36:55.214Z,14.68
2017-10-01T05:40:02.180Z,14.41
2017-10-01T05:43:07.977Z,14.47
2017-10-01T05:46:13.979Z,14.47
2017-10-01T05:49:20.505Z,14.66
2017-10-01T05:52:27.247Z,14.59
2017-10-01T05:55:33.888Z,14.43
2017-10-01T05:58:40.761Z,14.01
2017-10-01T06:01:46.357Z,13.98
2017-10-01T06:04:53.930Z,14.30
2017-10-01T06:07:59.649Z,14.27
2017-10-01T06:11:05.245Z,14.72
2017-10-01T06:14:10.959Z,14.98
2017-10-01T06:17:18.531Z,15.27
2017-10-01T06:20:25.201Z,15.33
2017-10-01T06:23:31.038Z,15.43
2017-10-01T06:26:37.738Z,15.61
2017-10-01T06:29:44.630Z,15.71
2017-10-01T06:32:51.205Z,15.78
2017-10-01T06:35:56.934Z,15.98
2017-10-01T06:39:03.543Z,16.26
2017-10-01T06:42:10.006Z,16.48
2017-10-01T06:45:15.894Z,15.92
2017-10-01T06:48:22.659Z,16.00
2017-10-01T06:51:28.414Z,16.13
2017-10-01T06:54:35.161Z,16.40
2017-10-01T06:57:40.701Z,16.06
2017-10-01T07:00:46.330Z,16.24
2017-10-01T07:03:52.134Z,16.76
2017-10-01T07:07:04.790Z,16.93
2017-10-01T07:10:11.587Z,16.66
2017-10-01T07:13:19.235Z,16.98
2017-10-01T07:16:24.953Z,17.13
2017-10-01T07:19:30.887Z,17.23
2017-10-01T07:22:36.754Z,17.09
2017-10-01T07:25:43.571Z,17.00
2017-10-01T07:28:49.196Z,17.19
2017-10-01T07:31:54.918Z,17.33
2017-10-01T07:35:00.699Z,17.29
2017-10-01T07:38:07.360Z,17.71
2017-10-01T07:41:13.020Z,17.80
2017-10-01T07:44:19.689Z,17.78
2017-10-01T07:47:25.395Z,17.88
2017-10-01T07:50:32.344Z,18.13
2017-10-01T07:53:37.853Z,17.93
2017-10-01T07:56:44.577Z,18.21
2017-10-01T07:59:50.436Z,18.10
2017-10-01T08:02:57.078Z,18.41
2017-10-01T08:06:02.842Z,18.48
2017-10-01T08:09:09.353Z,18.37
2017-10-01T08:12:15.143Z,18.52
2017-10-01T08:15:20.798Z,18.59
2017-10-01T08:18:26.355Z,18.63
2017-10-01T08:21:35.088Z,18.86
2017-10-01T08:24:49.991Z,18.94
2017-10-01T08:28:00.125Z,19.57
2017-10-01T08:31:15.122Z,19.97
2017-10-01T08:34:37.947Z,20.51
2017-10-01T08:37:43.561Z,20.15
2017-10-01T08:40:51.221Z,19.62
2017-10-01T08:43:58.096Z,19.18
2017-10-01T08:47:04.806Z,18.90
2017-10-01T08:50:11.518Z,18.92
2017-10-01T08:53:17.262Z,19.18
2017-10-01T09:04:10.848Z,18.88
2017-10-01T09:07:48.639Z,18.98
2017-10-01T09:14:30.431Z,19.31
2017-10-01T09:17:39.907Z,19.78
2017-10-01T09:21:01.303Z,19.81
2017-10-01T09:24:16.969Z,19.85
2017-10-01T09:27:31.480Z,19.85
2017-10-01T09:30:50.012Z,19.94
2017-10-01T09:34:14.661Z,20.23
2017-10-01T09:37:26.010Z,20.64
2017-10-01T09:40:35.784Z,20.15
2017-10-01T09:47:05.899Z,20.33
2017-10-01T09:50:17.828Z,20.16
2017-10-01T09:53:23.280Z,20.28
2017-10-01T09:56:39.143Z,20.22
2017-10-01T09:59:55.997Z,20.02
2017-10-01T10:03:05.081Z,19.84
2017-10-01T10:06:19.646Z,19.91
2017-10-01T10:09:28.156Z,19.29
2017-10-01T10:12:42.474Z,18.83
2017-10-01T10:15:48.257Z,19.06
2017-10-01T10:19:06.950Z,19.36
2017-10-01T10:22:31.389Z,19.49
2017-10-01T10:25:52.830Z,19.94
2017-10-01T10:29:00.522Z,19.72
2017-10-01T10:32:17.292Z,19.66
2017-10-01T10:39:01.498Z,19.53
2017-10-01T10:45:30.888Z,19.31
2017-10-01T10:52:07.006Z,19.02
2017-10-01T10:55:12.933Z,19.36
2017-10-01T11:05:28.951Z,19.38
2017-10-01T11:12:02.372Z,18.96
2017-10-01T11:18:36.752Z,19.39
2017-10-01T11:21:46.177Z,19.02
2017-10-01T11:24:53.079Z,18.85
2017-10-01T11:27:58.622Z,19.21
2017-10-01T11:31:07.182Z,19.34
2017-10-01T11:34:15.890Z,19.06
2017-10-01T11:37:23.658Z,18.79
2017-10-01T11:40:31.223Z,19.40
2017-10-01T11:43:38.921Z,19.25
2017-10-01T11:46:48.595Z,19.57
2017-10-01T11:49:54.217Z,19.49
2017-10-01T11:52:59.912Z,19.56
2017-10-01T11:56:05.620Z,19.43
2017-10-01T11:59:16.304Z,18.81
2017-10-01T12:02:21.930Z,18.86
2017-10-01T12:05:29.517Z,19.04
2017-10-01T12:08:43.161Z,19.05
2017-10-01T12:11:50.921Z,19.41
2017-10-01T12:18:19.005Z,19.34
2017-10-01T12:21:28.701Z,19.54
2017-10-01T12:24:35.325Z,19.60
2017-10-01T12:27:42.960Z,19.77
2017-10-01T12:30:50.616Z,19.50
2017-10-01T12:33:59.397Z,19.29
2017-10-01T12:39:55.885Z,19.08
2017-10-01T12:43:03.841Z,19.06
2017-10-01T12:46:11.516Z,19.24
2017-10-01T12:49:23.402Z,19.19
2017-10-01T12:52:29.808Z,19.43
2017-10-01T12:59:25.850Z,19.26
2017-10-01T13:02:33.656Z,19.72
2017-10-01T13:05:57.787Z,19.86
2017-10-01T13:09:14.781Z,20.05
2017-10-01T13:12:21.201Z,20.18
2017-10-01T13:15:34.838Z,19.82
2017-10-01T13:18:49.160Z,19.75
2017-10-01T13:21:56.062Z,19.53
2017-10-01T13:25:06.852Z,19.43
2017-10-01T13:28:18.841Z,19.30
2017-10-01T13:31:30.518Z,19.61
2017-10-01T13:34:44.273Z,19.76
2017-10-01T13:37:56.898Z,19.90
2017-10-01T13:41:02.710Z,19.87
2017-10-01T13:44:08.261Z,19.85
2017-10-01T13:47:15.205Z,19.35
2017-10-01T13:50:22.040Z,19.87
2017-10-01T13:53:27.722Z,19.65
2017-10-01T13:56:53.505Z,19.92
2017-10-01T13:59:59.283Z,20.11
2017-10-01T14:03:05.933Z,20.07
2017-10-01T14:06:16.575Z,19.78
2017-10-01T14:09:26.431Z,19.20
2017-10-01T14:12:33.045Z,19.49
2017-10-01T14:15:39.666Z,19.13
2017-10-01T14:18:46.682Z,19.37
2017-10-01T14:21:57.258Z,19.48
2017-10-01T14:25:03.972Z,19.13
2017-10-01T14:28:15.498Z,19.46
2017-10-01T14:31:28.279Z,19.07
2017-10-01T14:34:37.859Z,19.02
2017-10-01T14:37:44.837Z,18.99
2017-10-01T14:44:14.611Z,19.49
2017-10-01T14:47:23.385Z,19.17
2017-10-01T14:50:35.041Z,19.16
2017-10-01T14:53:43.924Z,18.44
2017-10-01T14:56:50.523Z,18.35
2017-10-01T15:00:02.344Z,18.75
2017-10-01T15:03:13.992Z,18.85
2017-10-01T15:06:21.684Z,19.12
2017-10-01T15:09:27.284Z,19.09
2017-10-01T15:12:39.363Z,19.22
2017-10-01T15:15:46.128Z,19.36
2017-10-01T15:18:55.693Z,19.53
2017-10-01T15:22:02.234Z,19.36
2017-10-01T15:25:15.996Z,19.27
2017-10-01T15:28:21.645Z,18.86
2017-10-01T15:31:28.050Z,18.86
2017-10-01T15:34:33.376Z,18.66
2017-10-01T15:37:41.048Z,18.72
2017-10-01T15:40:46.669Z,18.62
2017-10-01T15:43:53.210Z,18.63
2017-10-01T15:46:58.831Z,17.78
2017-10-01T15:50:06.395Z,18.37
2017-10-01T15:53:13.121Z,17.91
2017-10-01T15:56:22.938Z,17.83
2017-10-01T15:59:36.467Z,17.65
2017-10-01T16:02:49.054Z,17.76
2017-10-01T16:06:02.897Z,17.31
2017-10-01T16:09:09.509Z,17.70
2017-10-01T16:12:16.242Z,17.79
2017-10-01T16:15:25.702Z,17.71
2017-10-01T16:18:40.478Z,17.36
2017-10-01T16:21:53.112Z,17.36
2017-10-01T16:24:58.901Z,17.41
2017-10-01T16:41:13.470Z,17.66
2017-10-01T16:44:20.655Z,17.53
2017-10-01T16:47:39.239Z,17.31
2017-10-01T16:50:45.832Z,17.30
2017-10-01T16:53:54.692Z,17.18
2017-10-01T16:57:01.124Z,17.06
2017-10-01T17:00:06.857Z,16.93
2017-10-01T17:03:14.382Z,16.75
2017-10-01T17:06:21.245Z,16.60
2017-10-01T17:09:33.781Z,16.40
2017-10-01T17:12:39.537Z,16.33
2017-10-01T17:15:45.110Z,16.13
2017-10-01T17:18:50.834Z,15.93
2017-10-01T17:22:14.084Z,15.76
2017-10-01T17:25:19.678Z,15.44
2017-10-01T17:28:32.561Z,14.95
2017-10-01T17:31:38.134Z,14.97
2017-10-01T17:35:06.895Z,14.89
2017-10-01T17:38:18.279Z,14.80
2017-10-01T17:41:36.676Z,14.74
2017-10-01T17:44:42.276Z,14.67
2017-10-01T17:47:51.078Z,14.64
2017-10-01T17:50:57.693Z,14.65
2017-10-01T17:54:04.267Z,14.51
2017-10-01T17:57:10.926Z,14.60
2017-10-01T18:00:18.539Z,14.74
2017-10-01T18:03:26.320Z,14.94
2017-10-01T18:06:33.924Z,14.93
2017-10-01T18:09:40.762Z,15.15
2017-10-01T18:12:48.462Z,15.10
2017-10-01T18:15:54.182Z,14.69
2017-10-01T18:19:01.058Z,14.79
2017-10-01T18:22:07.611Z,15.08
2017-10-01T18:25:14.253Z,14.88
2017-10-01T18:28:21.343Z,15.05
2017-10-01T18:31:26.882Z,15.09
2017-10-01T18:34:33.341Z,14.44
2017-10-01T18:37:39.507Z,14.84
2017-10-01T18:40:45.998Z,15.04
2017-10-01T18:43:51.205Z,15.10
2017-10-01T18:46:57.089Z,15.28
2017-10-01T18:56:02.429Z,14.97
2017-10-01T18:59:07.861Z,15.03
2017-10-01T19:02:17.612Z,14.90
2017-10-01T19:05:23.322Z,14.70
2017-10-01T19:08:30.148Z,14.48
2017-10-01T19:11:36.848Z,14.53
2017-10-01T19:14:43.558Z,14.09
2017-10-01T19:17:49.331Z,14.16
2017-10-01T19:20:55.934Z,14.15
2017-10-01T19:24:01.842Z,13.80
2017-10-01T19:27:08.514Z,13.81
2017-10-01T19:30:14.953Z,14.02
2017-10-01T19:33:22.085Z,13.70
2017-10-01T19:36:29.963Z,14.13
2017-10-01T19:39:37.544Z,14.04
2017-10-01T19:42:44.069Z,13.96
2017-10-01T19:45:50.867Z,13.94
2017-10-01T19:48:56.526Z,14.09
2017-10-01T19:52:02.230Z,14.42
2017-10-01T19:55:08.035Z,13.98
2017-10-01T20:01:13.323Z,14.44
2017-10-01T20:03:42.539Z,14.64
2017-10-01T20:06:29.248Z,14.67
2017-10-01T20:15:47.995Z,14.62
2017-10-01T20:18:17.993Z,14.53
2017-10-01T20:20:47.867Z,14.72
2017-10-01T20:23:17.529Z,14.65
2017-10-01T20:25:47.497Z,14.79
2017-10-01T20:28:17.511Z,14.87
2017-10-01T20:30:48.777Z,14.65
2017-10-01T20:33:23.020Z,14.62
2017-10-01T20:41:10.951Z,15.07
2017-10-01T20:43:40.109Z,14.68
2017-10-01T20:46:10.552Z,14.89
2017-10-01T20:48:40.416Z,14.93
2017-10-01T20:51:10.662Z,14.47
2017-10-01T20:53:41.241Z,14.51
2017-10-01T20:56:10.283Z,14.58
2017-10-01T20:58:42.388Z,14.65
2017-10-01T21:01:15.050Z,14.37
2017-10-01T21:03:45.974Z,14.36
2017-10-01T21:06:16.464Z,14.07
2017-10-01T21:08:48.835Z,14.43
2017-10-01T21:11:19.786Z,14.51
2017-10-01T21:13:49.517Z,14.34
2017-10-01T21:16:19.158Z,14.43
2017-10-01T21:18:48.791Z,14.26
2017-10-01T21:21:18.636Z,14.40
2017-10-01T21:23:47.985Z,13.98
